Pagina principale
METAR-TAF:

METAR-TAF

Aeroporti :

Capri, Italia

latitudine: 40-33N, longitudine: 014-12E, altezza: 160 m

Osservazione

Il bollettino è stato emesso 32 minuti fa, alle 01:55 UTC
Vento 3 kt da ovest
Temperature 12°C
Umidità 88%
Pressione 1027 hPa
Visibilità 10 km o più
Nuvoloso ad un'altezza di 2500 ft

METAR: LIQC 240155Z 27003KT 9999 BKN025 12/10 Q1027 RMK BKN QUK / QUL / VIS MAR 20 KM VIS MIN 9999

Ora: 03:27 (02:27 UTC)


TAF: mancante

Osservazioni e previsioni meteorologiche di più di 4000 aeroporti (messaggi METAR e TAF).

Le stazioni disponibili sono rappresentate dai dischi gialli e rossi sulla carta.

Puntare il mouse per vedere il nome della stazione.

Clicca sopra per visualizzare le osservazioni e previsioni meteorologiche.

Per cambiare la mappa : fare clic sui pulsanti verdi con una croce nera per ingrandire, il pulsante verde con un trattino per diminuire, o sulla freccia verde per le mappe adiacenti.


METAR-TAF: